WetterOnline ( https://www.wetteronline.de )

Wetter aktuell Bonn

Aktuelles Wetter: Königswinter-Heiderhof (147m)

6-stündlich | Neueste Meldungen
Ortszeit Temperatur Wetter
Mo, 28.11. 7:00 5.9° C bedeckt
Mo, 28.11. 1:00 7.4° C leichter Regen
So, 27.11. 19:00 6.0° C leichter Regen
So, 27.11. 13:00 8.1° C bewölkt
So, 27.11. 7:00 4.6° C bedeckt
So, 27.11. 1:00 4.9° C wolkig
Sa, 26.11. 19:00 5.2° C bewölkt
Sa, 26.11. 13:00 8.1° C bewölkt
Ortszeit Temperatur Wetter
Mo, 28.11. 7:00 5.9° C bedeckt
Mo, 28.11. 6:40 5.9° C bewölkt
Mo, 28.11. 6:30 5.8° C bedeckt
Mo, 28.11. 6:20 5.8° C bedeckt
Mo, 28.11. 6:10 5.7° C bedeckt
Mo, 28.11. 6:00 6.1° C bedeckt
Mo, 28.11. 5:50 6.1° C bedeckt
Mo, 28.11. 5:30 6.1° C leichter Regen
Mo, 28.11. 5:00 6.1° C bedeckt
Mo, 28.11. 4:30 6.8° C bedeckt
Mo, 28.11. 4:00 6.4° C bedeckt
Ortszeit Relative Feuchte Sichtweite
Mo, 28.11. 7:00 82% 40 km
Mo, 28.11. 1:00 73% 30 km
So, 27.11. 19:00 85% 35 km
So, 27.11. 13:00 73% 45 km
So, 27.11. 7:00 85% 40 km
So, 27.11. 1:00 84% 40 km
Sa, 26.11. 19:00 90% 35 km
Sa, 26.11. 13:00 77% 40 km
Ortszeit Relative Feuchte Sichtweite
Mo, 28.11. 7:00 82% 40 km
Mo, 28.11. 6:40 82% -
Mo, 28.11. 6:30 83% 40 km
Mo, 28.11. 6:20 83% -
Mo, 28.11. 6:10 85% -
Mo, 28.11. 6:00 81% 45 km
Mo, 28.11. 5:50 81% -
Mo, 28.11. 5:30 83% 40 km
Mo, 28.11. 5:00 84% 45 km
Mo, 28.11. 4:30 81% 50 km
Mo, 28.11. 4:00 85% 50 km
Ortszeit Niederschlagsmenge Niederschlagsart
Mo, 28.11. 7:00 4 l/m2 in 12 Std. Regen
Mo, 28.11. 1:00 0.4 l/m2 in 6 Std. Regen
So, 27.11. 19:00 1 l/m2 in 12 Std. Regen
So, 27.11. 13:00 0.0 l/m2 in 6 Std. -
So, 27.11. 7:00 0.0 l/m2 in 12 Std. -
So, 27.11. 1:00 0.0 l/m2 in 6 Std. -
Sa, 26.11. 19:00 0.0 l/m2 in 12 Std. -
Sa, 26.11. 13:00 0.0 l/m2 in 6 Std. -
Ortszeit Niederschlagsmenge Niederschlagsart
Mo, 28.11. 7:00 <0.05 l/m2 in 1 Std. Regen
Mo, 28.11. 6:40 keine Meldung -
Mo, 28.11. 6:30 0.0 l/m2 in 1 Std. -
Mo, 28.11. 6:20 keine Meldung -
Mo, 28.11. 6:10 keine Meldung -
Mo, 28.11. 6:00 <0.05 l/m2 in 1 Std. Regen
Mo, 28.11. 5:50 keine Meldung -
Mo, 28.11. 5:30 <0.05 l/m2 in 1 Std. -
Mo, 28.11. 5:00 0.0 l/m2 in 1 Std. -
Mo, 28.11. 4:30 0.0 l/m2 in 1 Std. -
Mo, 28.11. 4:00 1.1 l/m2 in 1 Std. Regen
Ortszeit Stärke Spitze Richtung
km/h Bft. km/h Grad Sektor
Mo, 28.11. 7:00 9 2 33 130° SO
Mo, 28.11. 1:00 18 3 36 160° S
So, 27.11. 19:00 18 3 32 120° SO
So, 27.11. 13:00 11 2 40 120° SO
So, 27.11. 7:00 17 3 26 130° SO
So, 27.11. 1:00 17 3 26 130° SO
Sa, 26.11. 19:00 2 1 22 80° O
Sa, 26.11. 13:00 9 2 31 190° S
Ortszeit Stärke Spitze Richtung
km/h Bft. km/h Grad Sektor
Mo, 28.11. 7:00 9 2 22 130° SO
Mo, 28.11. 6:40 11 2 - 120° SO
Mo, 28.11. 6:30 11 2 22 130° SO
Mo, 28.11. 6:20 11 2 - 130° SO
Mo, 28.11. 6:10 9 2 - 130° SO
Mo, 28.11. 6:00 7 2 20 110° O
Mo, 28.11. 5:50 7 2 - 110° O
Mo, 28.11. 5:30 13 3 20 150° SO
Mo, 28.11. 5:00 11 2 22 140° SO
Mo, 28.11. 4:30 13 3 22 160° S
Mo, 28.11. 4:00 14 3 29 140° SO
Ortszeit Untergrenze Bedeckung Gattung
total tief tief mittel hoch
Mo, 28.11. 7:00 1800 m 8/8 8/8 - - -
Mo, 28.11. 1:00 1170 m 7/8 7/8 - - -
So, 27.11. 19:00 1500 m 7/8 7/8 - - -
So, 27.11. 13:00 2700 m 8/8 7/8 - - -
So, 27.11. 7:00 3600 m 8/8 8/8 - - -
So, 27.11. 1:00 9000 m 7/8 0/8 - - -
Sa, 26.11. 19:00 3900 m 8/8 6/8 - - -
Sa, 26.11. 13:00 4200 m 8/8 7/8 - - -
Ortszeit Bedeckungsgrad in Achtel und Wolkenuntergrenze
Mo, 28.11. 7:00 8(1800m)
Mo, 28.11. 6:40 7
Mo, 28.11. 6:30 8(2100m)
Mo, 28.11. 6:20 8(2100m)
Mo, 28.11. 6:10 8
Mo, 28.11. 6:00 2(1500m) 8(2100m) 8(2700m)
Mo, 28.11. 5:50 2(1500m) 8(2100m) 8(2700m)
Mo, 28.11. 5:30 1(1230m) 8(1500m) 8(4500m)
Mo, 28.11. 5:00 6(1320m) 8(1500m) 8(4800m)
Mo, 28.11. 4:30 5(1080m) 8(1500m)
Mo, 28.11. 4:00 5(1440m) 8(1500m) 8(3900m)
Ortszeit Luftdruck NN (hPa) Tendenz (hPa in 3 Std.)
Mo, 28.11. 7:00 1012 0,0
Mo, 28.11. 1:00 1014 - 1,4
So, 27.11. 19:00 1017 - 2,3
So, 27.11. 13:00 1022 - 1,5
So, 27.11. 7:00 1025 - 2,0
So, 27.11. 1:00 1028 - 1,7
Sa, 26.11. 19:00 1031 - 0,1
Sa, 26.11. 13:00 1031 + 0,6
Ortszeit Luftdruck NN (hPa) Tendenz (hPa in 3 Std.)
Mo, 28.11. 7:00 1012 0,0
Mo, 28.11. 6:40 1012 keine Meldung
Mo, 28.11. 6:30 1012 - 0,3
Mo, 28.11. 6:20 1012 keine Meldung
Mo, 28.11. 6:10 1012 keine Meldung
Mo, 28.11. 6:00 1012 - 0,7
Mo, 28.11. 5:50 1012 keine Meldung
Mo, 28.11. 5:30 1012 - 1,2
Mo, 28.11. 5:00 1012 - 1,5
Mo, 28.11. 4:30 1012 - 1,5
Mo, 28.11. 4:00 1012 - 1,9
Ortszeit Schneehöhe (cm)
Mo, 28.11. 7:00 0
Mo, 28.11. 1:00 0
So, 27.11. 19:00 0
So, 27.11. 13:00 0
So, 27.11. 7:00 0
So, 27.11. 1:00 0
Sa, 26.11. 19:00 0
Sa, 26.11. 13:00 0
Ortszeit Schneehöhe (cm)
Mo, 28.11. 7:00 0
Mo, 28.11. 6:40 0
Mo, 28.11. 6:30 0
Mo, 28.11. 6:20 0
Mo, 28.11. 6:10 0
Mo, 28.11. 6:00 0
Mo, 28.11. 5:50 0
Mo, 28.11. 5:30 0
Mo, 28.11. 5:00 0
Mo, 28.11. 4:30 0
Mo, 28.11. 4:00 0
Link zu dieser Seite / Seite empfehlen

Das Wetter in ...